createdAt,value
2018-01-17T00:05:05.336Z,1.40
2018-01-17T00:10:33.533Z,1.10
2018-01-17T00:16:01.750Z,1.00
2018-01-17T00:21:29.955Z,0.67
2018-01-17T00:26:58.939Z,0.80
2018-01-17T00:32:27.141Z,0.50
2018-01-17T00:37:55.399Z,0.50
2018-01-17T00:43:23.621Z,0.50
2018-01-17T00:48:51.814Z,0.50
2018-01-17T00:54:20.018Z,0.53
2018-01-17T00:59:54.074Z,0.50
2018-01-17T01:05:22.307Z,0.60
2018-01-17T01:10:50.706Z,0.40
2018-01-17T01:16:18.937Z,0.70
2018-01-17T01:21:47.153Z,0.40
2018-01-17T01:27:15.620Z,0.70
2018-01-17T01:32:43.823Z,0.80
2018-01-17T01:38:12.005Z,0.60
2018-01-17T01:43:40.206Z,0.40
2018-01-17T01:49:09.122Z,0.50
2018-01-17T01:54:37.342Z,0.60
2018-01-17T02:00:05.567Z,0.50
2018-01-17T02:05:33.786Z,0.60
2018-01-17T02:11:02.007Z,0.40
2018-01-17T02:16:30.507Z,0.40
2018-01-17T02:22:03.751Z,0.40
2018-01-17T02:27:31.998Z,0.40
2018-01-17T02:33:00.215Z,0.60
2018-01-17T02:38:30.708Z,0.40
2018-01-17T02:43:58.906Z,0.40
2018-01-17T02:49:29.118Z,0.40
2018-01-17T02:54:57.316Z,0.40
2018-01-17T03:00:25.792Z,0.40
2018-01-17T03:05:54.006Z,0.40
2018-01-17T03:11:30.030Z,0.60
2018-01-17T03:16:58.240Z,0.40
2018-01-17T03:22:26.457Z,0.40
2018-01-17T03:27:57.913Z,0.50
2018-01-17T03:33:26.119Z,0.50
2018-01-17T03:38:54.332Z,0.40
2018-01-17T03:44:22.513Z,0.40
2018-01-17T03:49:56.813Z,0.60
2018-01-17T03:55:25.254Z,1.00
2018-01-17T04:00:53.459Z,0.60
2018-01-17T04:06:21.702Z,0.50
2018-01-17T04:11:49.948Z,0.50
2018-01-17T04:17:18.212Z,0.50
2018-01-17T04:22:47.149Z,0.40
2018-01-17T04:28:15.366Z,0.70
2018-01-17T04:33:43.552Z,0.50
2018-01-17T04:39:11.722Z,0.50
2018-01-17T04:44:39.906Z,0.60
2018-01-17T04:50:08.849Z,0.60
2018-01-17T04:55:38.090Z,0.50
2018-01-17T05:01:07.069Z,0.70
2018-01-17T05:06:35.256Z,0.50
2018-01-17T05:12:03.456Z,0.40
2018-01-17T05:17:31.684Z,0.50
2018-01-17T05:23:00.617Z,0.40
2018-01-17T05:28:28.948Z,0.40
2018-01-17T05:33:58.890Z,0.63
2018-01-17T05:39:27.547Z,0.60
2018-01-17T05:44:55.734Z,0.40
2018-01-17T05:50:23.921Z,0.80
2018-01-17T05:55:57.147Z,0.50
2018-01-17T06:01:25.350Z,0.70
2018-01-17T06:06:54.326Z,1.00
2018-01-17T06:12:24.537Z,0.50
2018-01-17T06:17:52.732Z,0.40
2018-01-17T06:23:20.989Z,0.50
2018-01-17T06:28:49.966Z,0.80
2018-01-17T06:34:18.169Z,0.60
2018-01-17T06:39:46.365Z,0.60
2018-01-17T06:45:14.712Z,0.50
2018-01-17T06:50:47.172Z,0.50
2018-01-17T06:56:15.438Z,0.40
2018-01-17T07:01:44.428Z,0.60
2018-01-17T07:07:12.654Z,0.57
2018-01-17T07:12:41.801Z,0.47
2018-01-17T07:18:09.976Z,0.60
2018-01-17T07:23:38.932Z,0.57
2018-01-17T07:29:07.337Z,0.80
2018-01-17T07:34:35.569Z,0.70
2018-01-17T07:40:07.830Z,0.70
2018-01-17T07:45:36.441Z,0.60
2018-01-17T07:51:18.338Z,0.60
2018-01-17T07:56:47.328Z,0.60
2018-01-17T08:02:15.519Z,0.40
2018-01-17T08:07:43.737Z,0.60
2018-01-17T08:13:11.973Z,0.47
2018-01-17T08:18:40.638Z,0.50
2018-01-17T08:24:08.869Z,0.80
2018-01-17T08:29:37.088Z,0.50
2018-01-17T08:35:05.314Z,0.50
2018-01-17T08:40:33.611Z,0.50
2018-01-17T08:46:01.852Z,0.60
2018-01-17T08:51:30.151Z,0.70
2018-01-17T08:56:59.308Z,0.67
2018-01-17T09:02:27.520Z,0.60
2018-01-17T09:07:55.721Z,0.60
2018-01-17T09:13:23.928Z,0.60
2018-01-17T09:18:52.269Z,0.60
2018-01-17T09:24:21.486Z,0.57
2018-01-17T09:29:54.176Z,0.50
2018-01-17T09:35:26.328Z,0.60
2018-01-17T09:40:55.383Z,0.60
2018-01-17T09:46:23.589Z,0.47
2018-01-17T09:51:56.651Z,0.60
2018-01-17T09:57:24.857Z,0.73
2018-01-17T10:02:53.096Z,0.70
2018-01-17T10:08:26.085Z,0.70
2018-01-17T10:13:55.215Z,0.50
2018-01-17T10:19:23.416Z,0.83
2018-01-17T10:24:58.345Z,0.60
2018-01-17T10:30:27.327Z,0.60
2018-01-17T10:36:02.686Z,0.80
2018-01-17T10:41:30.938Z,0.70
2018-01-17T10:46:59.133Z,0.70
2018-01-17T10:52:30.436Z,0.80
2018-01-17T10:57:58.621Z,0.80
2018-01-17T11:03:27.840Z,0.77
2018-01-17T11:08:56.129Z,0.90
2018-01-17T11:14:24.367Z,0.77
2018-01-17T11:20:01.679Z,0.63
2018-01-17T11:25:29.895Z,0.90
2018-01-17T11:30:59.889Z,1.13
2018-01-17T11:36:32.799Z,0.93
2018-01-17T11:42:02.825Z,0.83
2018-01-17T11:47:31.858Z,1.10
2018-01-17T11:53:00.297Z,0.80
2018-01-17T11:58:28.525Z,1.07
2018-01-17T12:04:01.842Z,0.90
2018-01-17T12:09:30.035Z,0.90
2018-01-17T12:14:58.256Z,0.60
2018-01-17T12:20:28.443Z,0.80
2018-01-17T12:25:56.687Z,0.60
2018-01-17T12:31:25.948Z,0.60
2018-01-17T12:37:00.179Z,0.80
2018-01-17T12:42:28.398Z,0.73
2018-01-17T12:47:56.613Z,0.60
2018-01-17T12:53:26.385Z,0.60
2018-01-17T12:58:55.539Z,0.60
2018-01-17T13:04:29.242Z,0.80
2018-01-17T13:09:57.428Z,0.50
2018-01-17T13:15:25.602Z,0.70
2018-01-17T13:20:53.809Z,0.77
2018-01-17T13:26:34.425Z,0.67
2018-01-17T13:32:02.677Z,0.70
2018-01-17T13:37:31.669Z,0.73
2018-01-17T13:43:00.045Z,1.00
2018-01-17T13:48:29.229Z,0.70
2018-01-17T13:53:57.532Z,0.70
2018-01-17T13:59:25.765Z,0.80
2018-01-17T14:04:53.970Z,1.20
2018-01-17T14:10:26.555Z,1.37
2018-01-17T14:15:54.800Z,0.83
2018-01-17T14:21:23.761Z,0.80
2018-01-17T14:26:51.959Z,0.90
2018-01-17T14:32:20.914Z,0.70
2018-01-17T14:37:49.229Z,0.77
2018-01-17T14:43:17.671Z,0.90
2018-01-17T14:48:45.958Z,1.47
2018-01-17T14:54:14.249Z,1.00
2018-01-17T14:59:42.501Z,2.03
2018-01-17T15:05:12.733Z,1.53
2018-01-17T15:10:40.985Z,1.23
2018-01-17T15:16:09.181Z,1.30
2018-01-17T15:21:37.493Z,0.90
2018-01-17T15:27:05.796Z,0.87
2018-01-17T15:32:34.030Z,0.97
2018-01-17T15:38:06.289Z,0.90
2018-01-17T15:43:34.594Z,1.17
2018-01-17T15:49:03.818Z,1.10
2018-01-17T15:54:32.057Z,1.30
2018-01-17T16:00:00.263Z,1.17
2018-01-17T16:05:30.439Z,1.70
2018-01-17T16:10:58.675Z,0.97
2018-01-17T16:16:26.920Z,1.17
2018-01-17T16:21:55.150Z,0.93
2018-01-17T16:27:27.768Z,1.23
2018-01-17T16:32:56.097Z,1.13
2018-01-17T16:38:29.581Z,1.23
2018-01-17T16:43:57.795Z,1.40
2018-01-17T16:49:31.356Z,1.47
2018-01-17T16:54:59.594Z,1.20
2018-01-17T17:00:27.798Z,1.20
2018-01-17T17:06:00.164Z,1.10
2018-01-17T17:11:28.433Z,1.10
2018-01-17T17:16:56.720Z,1.50
2018-01-17T17:22:24.935Z,1.57
2018-01-17T17:27:53.158Z,1.87
2018-01-17T17:33:22.398Z,2.10
2018-01-17T17:38:50.742Z,1.47
2018-01-17T17:44:21.704Z,1.20
2018-01-17T17:49:50.110Z,1.43
2018-01-17T17:55:19.204Z,1.10
2018-01-17T18:00:47.384Z,1.17
2018-01-17T18:06:17.089Z,2.23
2018-01-17T18:11:45.573Z,1.20
2018-01-17T18:17:13.751Z,1.17
2018-01-17T18:22:41.946Z,1.10
2018-01-17T18:28:11.093Z,1.30
2018-01-17T18:33:39.466Z,1.10
2018-01-17T18:39:11.700Z,0.90
2018-01-17T18:44:40.677Z,1.13
2018-01-17T18:50:09.857Z,1.87
2018-01-17T18:55:38.091Z,0.93
2018-01-17T19:01:06.296Z,1.50
2018-01-17T19:06:34.517Z,1.40
2018-01-17T19:12:03.050Z,0.90
2018-01-17T19:17:31.357Z,1.33
2018-01-17T19:23:12.727Z,2.40
2018-01-17T19:28:47.251Z,1.80
2018-01-17T19:34:16.278Z,2.47
2018-01-17T19:39:44.490Z,2.07
2018-01-17T19:45:12.724Z,2.70
2018-01-17T19:50:45.808Z,4.37
2018-01-17T19:56:14.473Z,4.07
2018-01-17T20:01:42.819Z,2.00
2018-01-17T20:07:12.228Z,2.40
2018-01-17T20:12:41.136Z,3.40
2018-01-17T20:18:09.343Z,1.47
2018-01-17T20:23:37.592Z,1.07
2018-01-17T20:29:05.797Z,2.13
2018-01-17T20:34:34.063Z,1.80
2018-01-17T20:40:04.559Z,1.70
2018-01-17T20:45:32.795Z,1.50
2018-01-17T20:51:01.001Z,2.23
2018-01-17T20:56:29.254Z,1.37
2018-01-17T21:01:57.460Z,2.17
2018-01-17T21:07:26.661Z,1.00
2018-01-17T21:12:55.630Z,1.60
2018-01-17T21:18:23.842Z,1.37
2018-01-17T21:23:52.034Z,2.20
2018-01-17T21:29:23.573Z,0.90
2018-01-17T21:34:51.816Z,1.37
2018-01-17T21:40:20.026Z,1.30
2018-01-17T21:45:51.367Z,1.37
2018-01-17T21:51:19.788Z,1.00
2018-01-17T21:56:50.947Z,1.13
2018-01-17T22:02:19.238Z,1.63
2018-01-17T22:07:47.427Z,1.23
2018-01-17T22:13:16.417Z,1.20
2018-01-17T22:18:44.714Z,1.03
2018-01-17T22:24:12.944Z,1.43
2018-01-17T22:29:41.165Z,1.60
2018-01-17T22:35:16.368Z,1.00
2018-01-17T22:40:44.554Z,1.00
2018-01-17T22:46:13.525Z,1.37
2018-01-17T22:51:41.737Z,1.30
2018-01-17T22:57:09.940Z,2.07
2018-01-17T23:02:39.212Z,1.50
2018-01-17T23:08:07.417Z,1.70
2018-01-17T23:13:35.734Z,1.20
2018-01-17T23:19:05.947Z,1.13
2018-01-17T23:24:37.919Z,1.50
2018-01-17T23:30:06.102Z,1.10
2018-01-17T23:35:34.299Z,1.60
2018-01-17T23:41:02.520Z,1.67
2018-01-17T23:46:31.120Z,1.20
2018-01-17T23:51:59.294Z,1.53
2018-01-17T23:57:34.106Z,1.20
